Terminal Aerodrome Forecast
Issued by NWS

Home | Current Version | Previous Version | Text Only | Print | Product List | Glossary Off
Versions: 1 2 3 4 5 6 7 8 9 10 11 12 13 14 15 16

153
FTUS43 KPAH 212341 AAA
TAFCGI
TAF AMD
KCGI 212341Z 2200/2224 02010KT P6SM VCSH SCT050 BKN090
      TEMPO 2200/2202 6SM -SHRA BR
     FM220200 02011KT P6SM BKN100
     FM221400 04012KT P6SM BKN200=

USA.gov is the U.S. government's official web portal to all federal, state and local government web resources and services.